sensor_id;sensor_type;location;lat;lon;timestamp;P1;durP1;ratioP1;P2;durP2;ratioP2
11655;SDS011;5884;43.618;1.438;2023-06-14T04:46:25;13.63;;;12.03;;
11655;SDS011;5884;43.618;1.438;2023-06-14T04:48:54;13.97;;;11.70;;
11655;SDS011;5884;43.618;1.438;2023-06-14T04:51:22;22.53;;;12.30;;
11655;SDS011;5884;43.618;1.438;2023-06-14T04:53:54;16.70;;;12.97;;
11655;SDS011;5884;43.618;1.438;2023-06-14T04:56:23;18.70;;;13.20;;
11655;SDS011;5884;43.618;1.438;2023-06-14T04:58:51;15.90;;;12.97;;
11655;SDS011;5884;43.618;1.438;2023-06-14T05:01:19;17.23;;;12.50;;
11655;SDS011;5884;43.618;1.438;2023-06-14T05:03:49;18.80;;;13.97;;
11655;SDS011;5884;43.618;1.438;2023-06-14T05:06:17;20.50;;;13.83;;
11655;SDS011;5884;43.618;1.438;2023-06-14T05:08:44;19.13;;;14.37;;
11655;SDS011;5884;43.618;1.438;2023-06-14T05:11:11;19.00;;;13.80;;
11655;SDS011;5884;43.618;1.438;2023-06-14T05:13:39;18.87;;;14.93;;
11655;SDS011;5884;43.618;1.438;2023-06-14T05:16:07;22.43;;;14.60;;
11655;SDS011;5884;43.618;1.438;2023-06-14T05:18:34;20.93;;;14.30;;
11655;SDS011;5884;43.618;1.438;2023-06-14T05:21:03;18.23;;;14.97;;
11655;SDS011;5884;43.618;1.438;2023-06-14T05:23:31;21.83;;;16.07;;
11655;SDS011;5884;43.618;1.438;2023-06-14T05:25:58;18.87;;;16.43;;
11655;SDS011;5884;43.618;1.438;2023-06-14T05:28:27;24.07;;;15.90;;
11655;SDS011;5884;43.618;1.438;2023-06-14T05:30:55;21.73;;;16.23;;
11655;SDS011;5884;43.618;1.438;2023-06-14T05:33:23;22.60;;;16.00;;
11655;SDS011;5884;43.618;1.438;2023-06-14T05:35:50;24.13;;;16.17;;
11655;SDS011;5884;43.618;1.438;2023-06-14T05:38:19;21.73;;;15.17;;
11655;SDS011;5884;43.618;1.438;2023-06-14T05:40:46;20.30;;;16.10;;
11655;SDS011;5884;43.618;1.438;2023-06-14T05:43:14;21.77;;;16.90;;
11655;SDS011;5884;43.618;1.438;2023-06-14T05:45:41;20.47;;;16.00;;
11655;SDS011;5884;43.618;1.438;2023-06-14T05:48:08;23.33;;;15.97;;
11655;SDS011;5884;43.618;1.438;2023-06-14T05:50:35;20.87;;;15.87;;
11655;SDS011;5884;43.618;1.438;2023-06-14T05:53:03;19.03;;;15.97;;
11655;SDS011;5884;43.618;1.438;2023-06-14T05:55:31;20.37;;;16.53;;
11655;SDS011;5884;43.618;1.438;2023-06-14T05:57:58;21.87;;;16.40;;
11655;SDS011;5884;43.618;1.438;2023-06-14T06:00:25;20.43;;;15.50;;
11655;SDS011;5884;43.618;1.438;2023-06-14T06:02:53;19.97;;;16.00;;
11655;SDS011;5884;43.618;1.438;2023-06-14T06:05:22;21.00;;;16.10;;
11655;SDS011;5884;43.618;1.438;2023-06-14T06:07:49;22.27;;;16.40;;
11655;SDS011;5884;43.618;1.438;2023-06-14T06:10:17;20.40;;;15.67;;
11655;SDS011;5884;43.618;1.438;2023-06-14T06:12:45;20.00;;;16.47;;
11655;SDS011;5884;43.618;1.438;2023-06-14T06:15:14;27.00;;;17.27;;
11655;SDS011;5884;43.618;1.438;2023-06-14T06:17:41;24.73;;;17.43;;
11655;SDS011;5884;43.618;1.438;2023-06-14T06:20:09;25.93;;;17.07;;
11655;SDS011;5884;43.618;1.438;2023-06-14T06:22:37;18.63;;;16.27;;
11655;SDS011;5884;43.618;1.438;2023-06-14T06:25:05;21.80;;;15.43;;
11655;SDS011;5884;43.618;1.438;2023-06-14T06:27:34;20.17;;;15.57;;
11655;SDS011;5884;43.618;1.438;2023-06-14T06:30:04;25.80;;;16.90;;
11655;SDS011;5884;43.618;1.438;2023-06-14T06:32:33;22.00;;;16.43;;
11655;SDS011;5884;43.618;1.438;2023-06-14T06:35:00;22.43;;;16.03;;
11655;SDS011;5884;43.618;1.438;2023-06-14T06:37:31;22.50;;;15.93;;
11655;SDS011;5884;43.618;1.438;2023-06-14T06:39:58;19.13;;;15.77;;
11655;SDS011;5884;43.618;1.438;2023-06-14T06:42:25;19.50;;;16.33;;
11655;SDS011;5884;43.618;1.438;2023-06-14T06:44:53;22.03;;;16.87;;
11655;SDS011;5884;43.618;1.438;2023-06-14T06:47:21;20.13;;;16.20;;
11655;SDS011;5884;43.618;1.438;2023-06-14T06:49:48;21.23;;;15.43;;
11655;SDS011;5884;43.618;1.438;2023-06-14T06:52:16;17.73;;;15.80;;
11655;SDS011;5884;43.618;1.438;2023-06-14T06:54:43;23.10;;;16.13;;
11655;SDS011;5884;43.618;1.438;2023-06-14T06:57:10;20.53;;;15.53;;
11655;SDS011;5884;43.618;1.438;2023-06-14T06:59:37;23.40;;;15.97;;
11655;SDS011;5884;43.618;1.438;2023-06-14T07:02:05;19.73;;;15.67;;
11655;SDS011;5884;43.618;1.438;2023-06-14T07:04:34;20.63;;;15.90;;
11655;SDS011;5884;43.618;1.438;2023-06-14T07:07:02;20.20;;;15.33;;
11655;SDS011;5884;43.618;1.438;2023-06-14T07:09:29;21.20;;;15.70;;
11655;SDS011;5884;43.618;1.438;2023-06-14T07:11:57;22.57;;;15.73;;
11655;SDS011;5884;43.618;1.438;2023-06-14T07:14:24;21.43;;;15.10;;
11655;SDS011;5884;43.618;1.438;2023-06-14T07:16:51;21.30;;;14.53;;
11655;SDS011;5884;43.618;1.438;2023-06-14T07:19:18;22.90;;;15.30;;
11655;SDS011;5884;43.618;1.438;2023-06-14T07:21:47;20.53;;;14.77;;
11655;SDS011;5884;43.618;1.438;2023-06-14T07:24:14;19.57;;;14.80;;
11655;SDS011;5884;43.618;1.438;2023-06-14T07:26:41;22.73;;;14.87;;
11655;SDS011;5884;43.618;1.438;2023-06-14T07:29:09;23.97;;;14.23;;
11655;SDS011;5884;43.618;1.438;2023-06-14T07:31:36;19.80;;;14.30;;
11655;SDS011;5884;43.618;1.438;2023-06-14T07:34:03;21.10;;;14.47;;
11655;SDS011;5884;43.618;1.438;2023-06-14T07:36:30;17.33;;;14.70;;
11655;SDS011;5884;43.618;1.438;2023-06-14T07:38:59;18.23;;;14.53;;
11655;SDS011;5884;43.618;1.438;2023-06-14T07:41:28;19.93;;;13.57;;
11655;SDS011;5884;43.618;1.438;2023-06-14T07:43:55;21.03;;;14.10;;
11655;SDS011;5884;43.618;1.438;2023-06-14T07:46:23;18.30;;;13.90;;
11655;SDS011;5884;43.618;1.438;2023-06-14T07:48:50;17.80;;;14.43;;
11655;SDS011;5884;43.618;1.438;2023-06-14T07:51:17;23.23;;;14.97;;
11655;SDS011;5884;43.618;1.438;2023-06-14T07:53:44;17.07;;;14.73;;
11655;SDS011;5884;43.618;1.438;2023-06-14T07:56:13;16.80;;;14.40;;
11655;SDS011;5884;43.618;1.438;2023-06-14T07:58:40;18.77;;;14.30;;
11655;SDS011;5884;43.618;1.438;2023-06-14T08:01:08;22.07;;;15.67;;
11655;SDS011;5884;43.618;1.438;2023-06-14T08:03:36;22.43;;;14.37;;
11655;SDS011;5884;43.618;1.438;2023-06-14T08:06:03;21.23;;;13.80;;
11655;SDS011;5884;43.618;1.438;2023-06-14T08:08:31;19.50;;;14.07;;
11655;SDS011;5884;43.618;1.438;2023-06-14T08:10:58;22.93;;;14.93;;
11655;SDS011;5884;43.618;1.438;2023-06-14T08:13:26;20.50;;;13.73;;
11655;SDS011;5884;43.618;1.438;2023-06-14T08:15:54;22.53;;;13.73;;
11655;SDS011;5884;43.618;1.438;2023-06-14T08:18:22;19.43;;;13.47;;
11655;SDS011;5884;43.618;1.438;2023-06-14T08:20:49;17.13;;;13.90;;
11655;SDS011;5884;43.618;1.438;2023-06-14T08:23:17;22.23;;;14.30;;
11655;SDS011;5884;43.618;1.438;2023-06-14T08:25:46;19.67;;;14.47;;
11655;SDS011;5884;43.618;1.438;2023-06-14T08:28:13;19.07;;;13.50;;
11655;SDS011;5884;43.618;1.438;2023-06-14T08:30:42;19.27;;;13.40;;
11655;SDS011;5884;43.618;1.438;2023-06-14T08:33:10;18.47;;;13.90;;
11655;SDS011;5884;43.618;1.438;2023-06-14T08:35:37;16.80;;;12.73;;
11655;SDS011;5884;43.618;1.438;2023-06-14T08:38:04;19.57;;;13.37;;
11655;SDS011;5884;43.618;1.438;2023-06-14T08:40:31;22.70;;;13.73;;
11655;SDS011;5884;43.618;1.438;2023-06-14T08:43:04;17.37;;;12.87;;
11655;SDS011;5884;43.618;1.438;2023-06-14T08:45:32;18.10;;;12.67;;
11655;SDS011;5884;43.618;1.438;2023-06-14T08:48:01;16.57;;;12.23;;
11655;SDS011;5884;43.618;1.438;2023-06-14T08:50:37;20.33;;;13.60;;
11655;SDS011;5884;43.618;1.438;2023-06-14T08:53:07;17.10;;;12.30;;
11655;SDS011;5884;43.618;1.438;2023-06-14T08:55:36;15.70;;;11.90;;
11655;SDS011;5884;43.618;1.438;2023-06-14T08:58:05;16.70;;;12.43;;
11655;SDS011;5884;43.618;1.438;2023-06-14T09:00:34;17.90;;;12.77;;
11655;SDS011;5884;43.618;1.438;2023-06-14T09:03:03;16.70;;;12.10;;
11655;SDS011;5884;43.618;1.438;2023-06-14T09:05:30;15.07;;;12.03;;
11655;SDS011;5884;43.618;1.438;2023-06-14T09:07:59;18.20;;;12.17;;
11655;SDS011;5884;43.618;1.438;2023-06-14T09:10:26;14.90;;;12.23;;
11655;SDS011;5884;43.618;1.438;2023-06-14T09:12:55;18.93;;;12.87;;
11655;SDS011;5884;43.618;1.438;2023-06-14T09:15:25;16.13;;;11.53;;
11655;SDS011;5884;43.618;1.438;2023-06-14T09:17:52;19.23;;;13.50;;
11655;SDS011;5884;43.618;1.438;2023-06-14T09:20:20;19.73;;;13.27;;
11655;SDS011;5884;43.618;1.438;2023-06-14T09:22:50;15.90;;;12.33;;
11655;SDS011;5884;43.618;1.438;2023-06-14T09:25:19;18.37;;;11.87;;
11655;SDS011;5884;43.618;1.438;2023-06-14T09:27:48;19.33;;;11.50;;
11655;SDS011;5884;43.618;1.438;2023-06-14T09:30:15;13.70;;;11.63;;
11655;SDS011;5884;43.618;1.438;2023-06-14T09:32:42;16.40;;;12.00;;
11655;SDS011;5884;43.618;1.438;2023-06-14T09:35:10;18.80;;;11.63;;
11655;SDS011;5884;43.618;1.438;2023-06-14T09:37:37;19.37;;;12.17;;
11655;SDS011;5884;43.618;1.438;2023-06-14T09:40:05;17.87;;;11.00;;
11655;SDS011;5884;43.618;1.438;2023-06-14T09:42:35;22.40;;;12.20;;
11655;SDS011;5884;43.618;1.438;2023-06-14T09:45:02;16.77;;;11.87;;
11655;SDS011;5884;43.618;1.438;2023-06-14T09:47:31;17.90;;;12.00;;
11655;SDS011;5884;43.618;1.438;2023-06-14T09:49:58;14.77;;;11.27;;
11655;SDS011;5884;43.618;1.438;2023-06-14T09:52:25;13.90;;;11.47;;
11655;SDS011;5884;43.618;1.438;2023-06-14T09:54:53;15.73;;;11.23;;
11655;SDS011;5884;43.618;1.438;2023-06-14T09:57:22;14.70;;;10.97;;
11655;SDS011;5884;43.618;1.438;2023-06-14T09:59:56;14.30;;;10.93;;
11655;SDS011;5884;43.618;1.438;2023-06-14T10:02:26;21.30;;;11.47;;
11655;SDS011;5884;43.618;1.438;2023-06-14T10:04:58;13.43;;;10.73;;
11655;SDS011;5884;43.618;1.438;2023-06-14T10:07:32;16.40;;;10.43;;
11655;SDS011;5884;43.618;1.438;2023-06-14T10:10:10;17.07;;;11.30;;
11655;SDS011;5884;43.618;1.438;2023-06-14T10:12:38;13.37;;;10.53;;
11655;SDS011;5884;43.618;1.438;2023-06-14T10:15:08;13.40;;;10.47;;
11655;SDS011;5884;43.618;1.438;2023-06-14T10:17:42;20.57;;;10.87;;
11655;SDS011;5884;43.618;1.438;2023-06-14T10:20:19;15.97;;;11.33;;
11655;SDS011;5884;43.618;1.438;2023-06-14T10:22:56;17.10;;;11.20;;
11655;SDS011;5884;43.618;1.438;2023-06-14T10:25:30;14.70;;;10.73;;
11655;SDS011;5884;43.618;1.438;2023-06-14T10:28:17;17.30;;;10.77;;
11655;SDS011;5884;43.618;1.438;2023-06-14T10:31:05;14.37;;;10.80;;
11655;SDS011;5884;43.618;1.438;2023-06-14T10:33:34;13.63;;;10.60;;
11655;SDS011;5884;43.618;1.438;2023-06-14T10:39:04;13.53;;;10.10;;
11655;SDS011;5884;43.618;1.438;2023-06-14T10:41:35;13.27;;;10.60;;
11655;SDS011;5884;43.618;1.438;2023-06-14T10:47:19;16.97;;;10.57;;
11655;SDS011;5884;43.618;1.438;2023-06-14T10:49:50;15.83;;;10.33;;
11655;SDS011;5884;43.618;1.438;2023-06-14T10:52:24;13.93;;;11.03;;
11655;SDS011;5884;43.618;1.438;2023-06-14T10:55:07;22.17;;;10.53;;
11655;SDS011;5884;43.618;1.438;2023-06-14T10:57:36;17.17;;;10.80;;
11655;SDS011;5884;43.618;1.438;2023-06-14T11:00:06;24.03;;;11.23;;
11655;SDS011;5884;43.618;1.438;2023-06-14T11:06:09;13.53;;;10.13;;
11655;SDS011;5884;43.618;1.438;2023-06-14T11:11:44;10.60;;;9.47;;
11655;SDS011;5884;43.618;1.438;2023-06-14T11:14:14;15.40;;;9.93;;
11655;SDS011;5884;43.618;1.438;2023-06-14T11:16:46;11.67;;;10.00;;
11655;SDS011;5884;43.618;1.438;2023-06-14T11:19:16;14.23;;;9.70;;
11655;SDS011;5884;43.618;1.438;2023-06-14T11:21:46;14.00;;;9.93;;
11655;SDS011;5884;43.618;1.438;2023-06-14T11:24:14;14.37;;;9.73;;
11655;SDS011;5884;43.618;1.438;2023-06-14T11:26:41;15.67;;;9.90;;
11655;SDS011;5884;43.618;1.438;2023-06-14T11:29:08;13.17;;;9.37;;
11655;SDS011;5884;43.618;1.438;2023-06-14T11:31:35;16.10;;;9.83;;
11655;SDS011;5884;43.618;1.438;2023-06-14T11:34:03;10.87;;;9.67;;
11655;SDS011;5884;43.618;1.438;2023-06-14T11:36:33;17.57;;;9.20;;
11655;SDS011;5884;43.618;1.438;2023-06-14T11:39:01;19.23;;;10.03;;
11655;SDS011;5884;43.618;1.438;2023-06-14T11:41:36;11.00;;;8.93;;
11655;SDS011;5884;43.618;1.438;2023-06-14T11:44:04;15.53;;;8.77;;
11655;SDS011;5884;43.618;1.438;2023-06-14T11:46:32;12.53;;;9.30;;
11655;SDS011;5884;43.618;1.438;2023-06-14T11:48:59;10.33;;;9.30;;
11655;SDS011;5884;43.618;1.438;2023-06-14T11:51:28;14.20;;;9.63;;
11655;SDS011;5884;43.618;1.438;2023-06-14T11:53:57;13.40;;;8.97;;
11655;SDS011;5884;43.618;1.438;2023-06-14T11:56:24;12.37;;;9.30;;
11655;SDS011;5884;43.618;1.438;2023-06-14T11:58:52;14.03;;;9.57;;
11655;SDS011;5884;43.618;1.438;2023-06-14T12:01:21;13.77;;;9.43;;
11655;SDS011;5884;43.618;1.438;2023-06-14T12:03:49;15.27;;;9.33;;
11655;SDS011;5884;43.618;1.438;2023-06-14T12:06:24;10.93;;;8.80;;
11655;SDS011;5884;43.618;1.438;2023-06-14T12:08:56;13.27;;;9.03;;
11655;SDS011;5884;43.618;1.438;2023-06-14T12:11:23;13.67;;;9.20;;
11655;SDS011;5884;43.618;1.438;2023-06-14T12:13:59;11.03;;;8.60;;
11655;SDS011;5884;43.618;1.438;2023-06-14T12:16:30;12.83;;;8.40;;
11655;SDS011;5884;43.618;1.438;2023-06-14T12:19:00;15.53;;;9.17;;
11655;SDS011;5884;43.618;1.438;2023-06-14T12:21:36;12.57;;;10.13;;
11655;SDS011;5884;43.618;1.438;2023-06-14T12:24:06;12.87;;;8.63;;
11655;SDS011;5884;43.618;1.438;2023-06-14T12:26:37;18.90;;;9.23;;
11655;SDS011;5884;43.618;1.438;2023-06-14T12:29:06;11.77;;;8.73;;
11655;SDS011;5884;43.618;1.438;2023-06-14T12:31:34;13.30;;;8.90;;
11655;SDS011;5884;43.618;1.438;2023-06-14T12:34:01;13.27;;;8.70;;
11655;SDS011;5884;43.618;1.438;2023-06-14T12:36:28;11.40;;;8.87;;
11655;SDS011;5884;43.618;1.438;2023-06-14T12:38:56;13.63;;;8.90;;
11655;SDS011;5884;43.618;1.438;2023-06-14T12:41:25;12.00;;;9.27;;
11655;SDS011;5884;43.618;1.438;2023-06-14T12:43:53;13.07;;;9.73;;
11655;SDS011;5884;43.618;1.438;2023-06-14T12:46:20;9.87;;;8.63;;
11655;SDS011;5884;43.618;1.438;2023-06-14T12:48:47;10.03;;;8.40;;
11655;SDS011;5884;43.618;1.438;2023-06-14T12:51:14;13.87;;;8.50;;
11655;SDS011;5884;43.618;1.438;2023-06-14T12:53:42;11.17;;;7.93;;
11655;SDS011;5884;43.618;1.438;2023-06-14T12:56:10;14.07;;;8.87;;
11655;SDS011;5884;43.618;1.438;2023-06-14T12:58:38;11.10;;;7.87;;
11655;SDS011;5884;43.618;1.438;2023-06-14T13:01:06;13.57;;;8.30;;
11655;SDS011;5884;43.618;1.438;2023-06-14T13:03:33;10.10;;;8.47;;
11655;SDS011;5884;43.618;1.438;2023-06-14T13:06:00;12.50;;;9.27;;
11655;SDS011;5884;43.618;1.438;2023-06-14T13:08:29;12.27;;;8.80;;
11655;SDS011;5884;43.618;1.438;2023-06-14T13:10:56;15.50;;;8.87;;
11655;SDS011;5884;43.618;1.438;2023-06-14T13:13:24;17.33;;;8.47;;
11655;SDS011;5884;43.618;1.438;2023-06-14T13:15:52;15.40;;;8.37;;
11655;SDS011;5884;43.618;1.438;2023-06-14T13:18:19;13.13;;;8.10;;
11655;SDS011;5884;43.618;1.438;2023-06-14T13:20:47;13.43;;;8.73;;
11655;SDS011;5884;43.618;1.438;2023-06-14T13:23:15;12.83;;;8.50;;
11655;SDS011;5884;43.618;1.438;2023-06-14T13:25:42;11.70;;;8.70;;
11655;SDS011;5884;43.618;1.438;2023-06-14T13:28:10;13.80;;;8.43;;
11655;SDS011;5884;43.618;1.438;2023-06-14T13:30:37;11.48;;;7.45;;
11655;SDS011;5884;43.618;1.438;2023-06-14T13:33:06;10.53;;;8.27;;
11655;SDS011;5884;43.618;1.438;2023-06-14T13:35:33;14.00;;;9.10;;
11655;SDS011;5884;43.618;1.438;2023-06-14T13:38:00;11.63;;;8.33;;
11655;SDS011;5884;43.618;1.438;2023-06-14T13:40:28;9.60;;;8.10;;
11655;SDS011;5884;43.618;1.438;2023-06-14T13:42:55;11.65;;;8.65;;
11655;SDS011;5884;43.618;1.438;2023-06-14T13:45:22;12.07;;;9.13;;
11655;SDS011;5884;43.618;1.438;2023-06-14T13:47:49;9.90;;;8.53;;
11655;SDS011;5884;43.618;1.438;2023-06-14T13:50:18;11.03;;;8.07;;
11655;SDS011;5884;43.618;1.438;2023-06-14T13:52:45;14.57;;;8.40;;
11655;SDS011;5884;43.618;1.438;2023-06-14T13:55:12;12.63;;;8.87;;
11655;SDS011;5884;43.618;1.438;2023-06-14T13:57:40;11.60;;;8.33;;
11655;SDS011;5884;43.618;1.438;2023-06-14T14:00:08;12.25;;;8.63;;
11655;SDS011;5884;43.618;1.438;2023-06-14T14:02:36;11.85;;;8.35;;
11655;SDS011;5884;43.618;1.438;2023-06-14T14:05:05;9.70;;;8.30;;
11655;SDS011;5884;43.618;1.438;2023-06-14T14:07:34;12.63;;;8.57;;
11655;SDS011;5884;43.618;1.438;2023-06-14T14:10:02;11.13;;;7.93;;
11655;SDS011;5884;43.618;1.438;2023-06-14T14:12:30;12.47;;;7.83;;
11655;SDS011;5884;43.618;1.438;2023-06-14T14:14:57;11.23;;;8.30;;
11655;SDS011;5884;43.618;1.438;2023-06-14T14:17:25;10.90;;;8.30;;
11655;SDS011;5884;43.618;1.438;2023-06-14T14:19:52;10.60;;;8.40;;
11655;SDS011;5884;43.618;1.438;2023-06-14T14:22:19;11.47;;;8.67;;
11655;SDS011;5884;43.618;1.438;2023-06-14T14:24:48;10.63;;;8.67;;
11655;SDS011;5884;43.618;1.438;2023-06-14T14:27:15;9.90;;;7.93;;
11655;SDS011;5884;43.618;1.438;2023-06-14T14:29:42;13.60;;;9.17;;
11655;SDS011;5884;43.618;1.438;2023-06-14T14:32:10;12.38;;;8.20;;
11655;SDS011;5884;43.618;1.438;2023-06-14T14:34:39;10.57;;;8.43;;
11655;SDS011;5884;43.618;1.438;2023-06-14T14:37:06;13.52;;;8.80;;
11655;SDS011;5884;43.618;1.438;2023-06-14T14:39:34;13.48;;;10.27;;
11655;SDS011;5884;43.618;1.438;2023-06-14T14:42:04;16.60;;;9.07;;
11655;SDS011;5884;43.618;1.438;2023-06-14T14:44:32;13.75;;;9.48;;
11655;SDS011;5884;43.618;1.438;2023-06-14T14:47:00;12.93;;;9.70;;
11655;SDS011;5884;43.618;1.438;2023-06-14T14:49:28;13.18;;;8.98;;
11655;SDS011;5884;43.618;1.438;2023-06-14T14:51:55;16.20;;;9.23;;
11655;SDS011;5884;43.618;1.438;2023-06-14T14:54:22;14.50;;;9.20;;
11655;SDS011;5884;43.618;1.438;2023-06-14T14:56:50;11.98;;;8.73;;
11655;SDS011;5884;43.618;1.438;2023-06-14T14:59:19;12.47;;;8.20;;
11655;SDS011;5884;43.618;1.438;2023-06-14T15:01:47;12.52;;;8.55;;
11655;SDS011;5884;43.618;1.438;2023-06-14T15:04:15;12.23;;;9.30;;
11655;SDS011;5884;43.618;1.438;2023-06-14T15:06:43;13.43;;;8.27;;
11655;SDS011;5884;43.618;1.438;2023-06-14T15:09:10;11.50;;;8.70;;
11655;SDS011;5884;43.618;1.438;2023-06-14T15:11:37;12.97;;;8.77;;
11655;SDS011;5884;43.618;1.438;2023-06-14T15:14:04;12.93;;;9.03;;
11655;SDS011;5884;43.618;1.438;2023-06-14T15:16:33;12.87;;;8.90;;
11655;SDS011;5884;43.618;1.438;2023-06-14T15:19:00;12.77;;;8.80;;
11655;SDS011;5884;43.618;1.438;2023-06-14T15:21:28;14.77;;;8.67;;
11655;SDS011;5884;43.618;1.438;2023-06-14T15:23:55;12.33;;;9.00;;
11655;SDS011;5884;43.618;1.438;2023-06-14T15:26:22;13.77;;;9.00;;
11655;SDS011;5884;43.618;1.438;2023-06-14T15:28:49;10.70;;;8.07;;
11655;SDS011;5884;43.618;1.438;2023-06-14T15:31:17;12.80;;;9.00;;
11655;SDS011;5884;43.618;1.438;2023-06-14T15:33:45;13.80;;;8.80;;
11655;SDS011;5884;43.618;1.438;2023-06-14T15:36:13;10.57;;;9.17;;
11655;SDS011;5884;43.618;1.438;2023-06-14T15:38:40;9.90;;;8.23;;
11655;SDS011;5884;43.618;1.438;2023-06-14T15:41:07;14.30;;;8.50;;
11655;SDS011;5884;43.618;1.438;2023-06-14T15:43:34;12.17;;;8.63;;
11655;SDS011;5884;43.618;1.438;2023-06-14T15:46:01;19.03;;;8.57;;
11655;SDS011;5884;43.618;1.438;2023-06-14T15:48:29;12.97;;;8.27;;
11655;SDS011;5884;43.618;1.438;2023-06-14T15:50:57;13.30;;;8.10;;
11655;SDS011;5884;43.618;1.438;2023-06-14T15:53:24;12.77;;;7.93;;
11655;SDS011;5884;43.618;1.438;2023-06-14T15:55:52;13.73;;;8.07;;
11655;SDS011;5884;43.618;1.438;2023-06-14T15:58:19;10.93;;;7.90;;
11655;SDS011;5884;43.618;1.438;2023-06-14T16:00:47;13.07;;;7.80;;
11655;SDS011;5884;43.618;1.438;2023-06-14T16:03:14;10.90;;;7.63;;
11655;SDS011;5884;43.618;1.438;2023-06-14T16:05:41;10.23;;;7.93;;
11655;SDS011;5884;43.618;1.438;2023-06-14T16:08:10;15.47;;;8.40;;
11655;SDS011;5884;43.618;1.438;2023-06-14T16:10:37;13.67;;;8.00;;
11655;SDS011;5884;43.618;1.438;2023-06-14T16:13:05;11.43;;;7.77;;
11655;SDS011;5884;43.618;1.438;2023-06-14T16:15:32;12.53;;;8.03;;
11655;SDS011;5884;43.618;1.438;2023-06-14T16:17:59;9.00;;;7.40;;
11655;SDS011;5884;43.618;1.438;2023-06-14T16:20:27;14.20;;;7.43;;
11655;SDS011;5884;43.618;1.438;2023-06-14T16:22:54;14.30;;;7.67;;
11655;SDS011;5884;43.618;1.438;2023-06-14T16:25:22;10.30;;;8.07;;
11655;SDS011;5884;43.618;1.438;2023-06-14T16:27:50;14.87;;;8.37;;
11655;SDS011;5884;43.618;1.438;2023-06-14T16:30:17;11.10;;;8.10;;
11655;SDS011;5884;43.618;1.438;2023-06-14T16:32:44;10.80;;;7.87;;
11655;SDS011;5884;43.618;1.438;2023-06-14T16:35:11;13.93;;;7.97;;
11655;SDS011;5884;43.618;1.438;2023-06-14T16:37:39;12.13;;;7.60;;
11655;SDS011;5884;43.618;1.438;2023-06-14T16:40:06;10.60;;;7.90;;
11655;SDS011;5884;43.618;1.438;2023-06-14T16:42:36;13.77;;;8.73;;
11655;SDS011;5884;43.618;1.438;2023-06-14T16:45:04;11.33;;;8.37;;
11655;SDS011;5884;43.618;1.438;2023-06-14T16:47:33;10.67;;;7.90;;
11655;SDS011;5884;43.618;1.438;2023-06-14T16:50:00;11.27;;;8.07;;
11655;SDS011;5884;43.618;1.438;2023-06-14T16:52:28;13.17;;;8.20;;
11655;SDS011;5884;43.618;1.438;2023-06-14T16:54:55;15.00;;;8.60;;
11655;SDS011;5884;43.618;1.438;2023-06-14T16:57:22;12.67;;;8.33;;
11655;SDS011;5884;43.618;1.438;2023-06-14T16:59:51;12.87;;;8.23;;
11655;SDS011;5884;43.618;1.438;2023-06-14T17:02:18;12.03;;;7.97;;
11655;SDS011;5884;43.618;1.438;2023-06-14T17:04:45;13.77;;;8.20;;
11655;SDS011;5884;43.618;1.438;2023-06-14T17:07:13;10.63;;;8.07;;
11655;SDS011;5884;43.618;1.438;2023-06-14T17:09:40;11.20;;;7.97;;
11655;SDS011;5884;43.618;1.438;2023-06-14T17:12:08;11.30;;;7.73;;
11655;SDS011;5884;43.618;1.438;2023-06-14T17:14:37;12.50;;;8.20;;
11655;SDS011;5884;43.618;1.438;2023-06-14T17:17:05;12.50;;;7.90;;
11655;SDS011;5884;43.618;1.438;2023-06-14T17:19:33;14.17;;;8.33;;
11655;SDS011;5884;43.618;1.438;2023-06-14T17:22:00;12.00;;;8.23;;
11655;SDS011;5884;43.618;1.438;2023-06-14T17:24:27;9.90;;;8.47;;
11655;SDS011;5884;43.618;1.438;2023-06-14T17:26:54;9.83;;;7.87;;
11655;SDS011;5884;43.618;1.438;2023-06-14T17:29:22;11.17;;;7.70;;
11655;SDS011;5884;43.618;1.438;2023-06-14T17:31:51;13.20;;;7.70;;
11655;SDS011;5884;43.618;1.438;2023-06-14T17:34:20;12.43;;;7.63;;
11655;SDS011;5884;43.618;1.438;2023-06-14T17:36:47;10.97;;;7.47;;
11655;SDS011;5884;43.618;1.438;2023-06-14T17:39:15;11.80;;;7.50;;
11655;SDS011;5884;43.618;1.438;2023-06-14T17:41:43;13.20;;;7.37;;
11655;SDS011;5884;43.618;1.438;2023-06-14T17:44:11;12.47;;;7.67;;
11655;SDS011;5884;43.618;1.438;2023-06-14T17:46:38;12.63;;;8.17;;
11655;SDS011;5884;43.618;1.438;2023-06-14T17:49:06;10.50;;;7.63;;
11655;SDS011;5884;43.618;1.438;2023-06-14T17:51:34;11.27;;;7.40;;
11655;SDS011;5884;43.618;1.438;2023-06-14T17:54:01;10.63;;;8.17;;
11655;SDS011;5884;43.618;1.438;2023-06-14T17:56:29;11.63;;;7.90;;
11655;SDS011;5884;43.618;1.438;2023-06-14T17:58:56;10.83;;;7.60;;
11655;SDS011;5884;43.618;1.438;2023-06-14T18:01:24;12.27;;;8.03;;
11655;SDS011;5884;43.618;1.438;2023-06-14T18:03:51;9.43;;;7.40;;
11655;SDS011;5884;43.618;1.438;2023-06-14T18:06:18;9.80;;;7.50;;
11655;SDS011;5884;43.618;1.438;2023-06-14T18:08:47;11.00;;;7.10;;
11655;SDS011;5884;43.618;1.438;2023-06-14T18:11:14;10.47;;;7.60;;
11655;SDS011;5884;43.618;1.438;2023-06-14T18:13:41;10.90;;;7.30;;
11655;SDS011;5884;43.618;1.438;2023-06-14T18:16:09;9.70;;;7.40;;
11655;SDS011;5884;43.618;1.438;2023-06-14T18:18:39;13.73;;;7.57;;
11655;SDS011;5884;43.618;1.438;2023-06-14T18:21:07;12.67;;;7.70;;
11655;SDS011;5884;43.618;1.438;2023-06-14T18:23:34;12.63;;;8.37;;
11655;SDS011;5884;43.618;1.438;2023-06-14T18:26:02;12.57;;;7.83;;
11655;SDS011;5884;43.618;1.438;2023-06-14T18:28:30;10.60;;;8.20;;
11655;SDS011;5884;43.618;1.438;2023-06-14T18:30:57;11.97;;;7.50;;
11655;SDS011;5884;43.618;1.438;2023-06-14T18:33:24;9.77;;;7.30;;
11655;SDS011;5884;43.618;1.438;2023-06-14T18:35:52;12.33;;;8.17;;
11655;SDS011;5884;43.618;1.438;2023-06-14T18:38:19;11.93;;;7.43;;
11655;SDS011;5884;43.618;1.438;2023-06-14T18:40:46;10.20;;;7.93;;
11655;SDS011;5884;43.618;1.438;2023-06-14T18:43:18;9.23;;;7.23;;
11655;SDS011;5884;43.618;1.438;2023-06-14T18:45:45;12.20;;;7.70;;
11655;SDS011;5884;43.618;1.438;2023-06-14T18:48:12;11.07;;;7.60;;
11655;SDS011;5884;43.618;1.438;2023-06-14T18:50:40;10.67;;;7.23;;
11655;SDS011;5884;43.618;1.438;2023-06-14T18:53:07;11.67;;;7.30;;
11655;SDS011;5884;43.618;1.438;2023-06-14T18:55:35;12.90;;;7.40;;
11655;SDS011;5884;43.618;1.438;2023-06-14T18:58:02;9.57;;;7.30;;
11655;SDS011;5884;43.618;1.438;2023-06-14T19:00:31;12.00;;;7.80;;
11655;SDS011;5884;43.618;1.438;2023-06-14T19:02:58;10.03;;;7.10;;
11655;SDS011;5884;43.618;1.438;2023-06-14T19:05:26;10.43;;;6.80;;
11655;SDS011;5884;43.618;1.438;2023-06-14T19:07:53;10.37;;;7.63;;
11655;SDS011;5884;43.618;1.438;2023-06-14T19:10:21;8.70;;;7.00;;
11655;SDS011;5884;43.618;1.438;2023-06-14T19:12:48;13.87;;;7.53;;
11655;SDS011;5884;43.618;1.438;2023-06-14T19:15:15;11.80;;;7.47;;
11655;SDS011;5884;43.618;1.438;2023-06-14T19:17:54;9.07;;;7.00;;
11655;SDS011;5884;43.618;1.438;2023-06-14T19:20:21;10.57;;;7.50;;
11655;SDS011;5884;43.618;1.438;2023-06-14T19:22:49;9.87;;;7.53;;
11655;SDS011;5884;43.618;1.438;2023-06-14T19:25:16;10.63;;;7.07;;
11655;SDS011;5884;43.618;1.438;2023-06-14T19:27:44;7.97;;;6.63;;
11655;SDS011;5884;43.618;1.438;2023-06-14T19:30:13;8.50;;;7.00;;
11655;SDS011;5884;43.618;1.438;2023-06-14T19:32:41;10.77;;;6.93;;
11655;SDS011;5884;43.618;1.438;2023-06-14T19:35:09;8.17;;;7.37;;
11655;SDS011;5884;43.618;1.438;2023-06-14T19:37:37;9.70;;;6.90;;
11655;SDS011;5884;43.618;1.438;2023-06-14T19:40:05;12.80;;;7.00;;
11655;SDS011;5884;43.618;1.438;2023-06-14T19:42:33;9.03;;;6.90;;
11655;SDS011;5884;43.618;1.438;2023-06-14T19:45:03;8.50;;;6.83;;
11655;SDS011;5884;43.618;1.438;2023-06-14T19:47:33;9.53;;;7.40;;